NORTHEAST SUFFOLK  -  Dense Fog Advisory Dense Fog Advisory        NORTHERN NASSAU  -  Dense Fog Advisory Dense Fog Advisory        NORTHERN QUEENS  -  Dense Fog Advisory Dense Fog Advisory     Dense Fog Advisory Dense Fog Advisory        NORTHWEST SUFFOLK  -  Dense Fog Advisory Dense Fog Advisory        SOUTHEAST SUFFOLK  -  Dense Fog Advisory Dense Fog Advisory        SOUTHERN NASSAU  -  Dense Fog Advisory Dense Fog Advisory        SOUTHERN QUEENS  -  Dense Fog Advisory Dense Fog Advisory     Dense Fog Advisory Dense Fog Advisory        SOUTHWEST SUFFOLK  -  Dense Fog Advisory Dense Fog Advisory      

Active alerts

Northern Queens
  Details for Northern Queens Dense Fog Advisory  +1 additional alert
Southern Queens
  Details for Southern Queens Dense Fog Advisory  +1 additional alert
Northern Nassau
  Details for Northern Nassau Dense Fog Advisory
Southern Nassau
  Details for Southern Nassau Dense Fog Advisory
Northwest Suffolk
  Details for Northwest Suffolk Dense Fog Advisory
Southwest Suffolk
  Details for Southwest Suffolk Dense Fog Advisory
Northeast Suffolk
  Details for Northeast Suffolk Dense Fog Advisory
Southeast Suffolk
  Details for Southeast Suffolk Dense Fog Advisory


WXM80 ListenWXM80 Stop

You find our weather info also at:

UK Metoffice

WeatherCloud

Weather Underground

Northeastern Weather Network

AWEKAS

Citizen Weather Observer Program (CWOP)

HAMweather, WeatherForYou, PWS Weather


Weather Underground History page Text

Daily Summary for January 17, 2018 Units:  English    Metric   Both
« Previous Day
Next Day »
Daily Weekly Monthly Yearly Custom
  High: Low: Average:
Temperature: TemperatureF °F 25.3 °F 32.3 °F
Dew Point: DewpointF °F 20.3 °F 30.5 °F
Humidity: Humidity % 80 % 93 %
Wind Speed: WindSpeedMPH mph 0.0 mph 3.1 mph
Wind Gust: WindSpeedGustMPH mph - -
Wind:- - SW
Pressure: PressureIn in 29.89 in -
Precipitation: 0.04 in    
Historical Graphs
 
 
Tabular Data for January 17, 2018
Time Temperature Dew Point Pressure Wind Wind Speed Wind Gust Humidity Rainfall Rate (Hourly)
TemperatureF °F DewpointF °F PressureIn in Calm     Humidity % HourlyPrecipIn in
00:07 31.8 °F 30.3 °F 30.08 in Calm     94 % 0.00 in
00:26 31.9 °F 30.4 °F 30.08 in Calm     94 % 0.00 in
00:33 32.0 °F 30.7 °F 30.08 in Calm     95 % 0.00 in
00:42 32.1 °F 30.8 °F 30.07 in Calm     95 % 0.00 in
00:47 32.3 °F 31.0 °F 30.07 in Calm     95 % 0.00 in
01:01 32.6 °F 31.3 °F 30.07 in Calm     95 % 0.00 in
01:07 32.6 °F 31.3 °F 30.07 in Calm     95 % 0.00 in
01:12 32.7 °F 31.4 °F 30.06 in Calm     95 % 0.00 in
01:25 32.8 °F 31.5 °F 30.05 in Calm     95 % 0.00 in
01:40 32.9 °F 31.6 °F 30.05 in Calm     95 % 0.00 in
01:47 33.0 °F 31.7 °F 30.05 in Calm     95 % 0.00 in
01:54 33.3 °F 32.0 °F 30.06 in Calm     95 % 0.00 in
02:01 33.4 °F 32.1 °F 30.05 in Calm     95 % 0.00 in
02:06 33.5 °F 32.5 °F 30.05 in Calm     96 % 0.00 in
02:26 33.8 °F 32.8 °F 30.05 in Calm     96 % 0.00 in
02:34 34.0 °F 33.0 °F 30.05 in Calm     96 % 0.00 in
02:44 34.1 °F 32.8 °F 30.05 in Calm     95 % 0.00 in
02:49 34.2 °F 32.9 °F 30.05 in ENE 0.6 mph 2.3 mph 95 % 0.00 in
02:54 34.2 °F 33.2 °F 30.05 in ENE 0.5 mph 3.5 mph 96 % 0.00 in
03:10 34.3 °F 33.3 °F 30.05 in Calm     96 % 0.00 in
03:20 34.4 °F 33.1 °F 30.04 in Calm   1.0 mph 95 % 0.00 in
03:29 34.5 °F 33.5 °F 30.04 in Calm     96 % 0.00 in
03:36 34.6 °F 33.6 °F 30.03 in ENE 0.1 mph 1.2 mph 96 % 0.00 in
03:42 34.7 °F 33.7 °F 30.03 in ENE 1.4 mph 3.5 mph 96 % 0.00 in
03:54 35.0 °F 34.0 °F 30.02 in ENE 2.0 mph 3.5 mph 96 % 0.00 in
04:01 35.1 °F 34.1 °F 30.02 in Calm     96 % 0.00 in
04:08 35.1 °F 34.1 °F 30.02 in NE 0.5 mph 2.0 mph 96 % 0.00 in
04:16 35.2 °F 34.2 °F 30.01 in East 2.7 mph 4.6 mph 96 % 0.00 in
04:21 35.2 °F 34.2 °F 30.01 in East 2.6 mph 3.5 mph 96 % 0.00 in
04:36 35.2 °F 34.2 °F 30.02 in ENE 1.9 mph 3.5 mph 96 % 0.00 in
04:47 35.3 °F 34.3 °F 30.01 in ENE 2.3 mph 4.6 mph 96 % 0.00 in
04:53 35.4 °F 34.4 °F 30.01 in NE 0.6 mph 2.3 mph 96 % 0.00 in
05:07 35.4 °F 34.4 °F 30.01 in ENE 3.1 mph 5.0 mph 96 % 0.00 in
05:17 35.4 °F 34.4 °F 30.01 in ENE 1.7 mph 3.5 mph 96 % 0.00 in
05:29 35.3 °F 34.5 °F 30.01 in ENE 0.3 mph 2.3 mph 97 % 0.00 in
05:47 35.3 °F 34.5 °F 30.01 in ENE 0.6 mph 2.3 mph 97 % 0.00 in
05:54 35.3 °F 34.5 °F 30.01 in ENE 0.5 mph 2.3 mph 97 % 0.00 in
06:04 35.4 °F 34.6 °F 30.01 in ENE 1.6 mph 3.5 mph 97 % 0.00 in
06:14 35.4 °F 34.6 °F 30.01 in NE 0.7 mph 2.3 mph 97 % 0.00 in
06:30 35.5 °F 34.7 °F 30.01 in ENE 1.4 mph 3.0 mph 97 % 0.00 in
06:35 35.6 °F 34.8 °F 30.01 in ENE 1.9 mph 3.5 mph 97 % 0.00 in
06:41 35.6 °F 34.8 °F 30.01 in ENE 3.6 mph 4.6 mph 97 % 0.00 in
06:56 35.5 °F 34.7 °F 30.00 in ENE 2.6 mph 4.6 mph 97 % 0.00 in
07:05 35.5 °F 34.7 °F 30.00 in ENE 5.9 mph 9.2 mph 97 % 0.00 in
07:11 35.4 °F 34.6 °F 30.00 in ENE 4.9 mph 7.0 mph 97 % 0.00 in
07:20 35.4 °F 34.6 °F 30.00 in ENE 3.7 mph 4.6 mph 97 % 0.00 in
07:34 35.3 °F 34.5 °F 30.00 in East 1.9 mph 3.5 mph 97 % 0.00 in
07:46 35.3 °F 34.5 °F 29.99 in ENE 3.8 mph 5.8 mph 97 % 0.00 in
07:54 35.3 °F 34.5 °F 30.00 in East 4.0 mph 5.8 mph 97 % 0.00 in
08:01 35.4 °F 34.6 °F 29.99 in East 3.2 mph 4.6 mph 97 % 0.00 in
08:21 35.6 °F 34.8 °F 29.99 in East 3.4 mph 5.0 mph 97 % 0.00 in
08:27 35.5 °F 34.7 °F 30.00 in ENE 4.1 mph 5.8 mph 97 % 0.00 in
08:34 35.5 °F 34.7 °F 30.00 in East 3.8 mph 5.0 mph 97 % 0.00 in
08:40 35.5 °F 34.7 °F 30.00 in ENE 2.5 mph 3.5 mph 97 % 0.00 in
08:45 35.5 °F 34.7 °F 30.00 in ENE 3.2 mph 3.5 mph 97 % 0.00 in
08:51 35.5 °F 34.7 °F 30.00 in ENE 3.8 mph 5.0 mph 97 % 0.00 in
08:58 35.6 °F 34.8 °F 30.00 in ENE 3.2 mph 4.6 mph 97 % 0.00 in
09:07 35.7 °F 34.9 °F 30.00 in ENE 2.2 mph 3.5 mph 97 % 0.00 in
09:15 35.7 °F 34.9 °F 30.00 in ENE 2.9 mph 3.5 mph 97 % 0.00 in
09:21 35.8 °F 35.0 °F 30.00 in East 3.3 mph 5.0 mph 97 % 0.01 in
09:27 35.8 °F 35.0 °F 30.00 in East 2.4 mph 4.6 mph 97 % 0.01 in
09:45 35.7 °F 34.9 °F 30.00 in East 3.1 mph 4.6 mph 97 % 0.01 in
10:04 35.7 °F 34.9 °F 30.00 in NNE 2.6 mph 3.5 mph 97 % 0.01 in
10:12 35.8 °F 35.0 °F 30.00 in NNE 3.6 mph 4.0 mph 97 % 0.01 in
10:23 35.7 °F 34.9 °F 30.00 in NNE 4.5 mph 6.0 mph 97 % 0.00 in
10:28 35.6 °F 34.8 °F 30.00 in North 3.2 mph 5.0 mph 97 % 0.01 in
10:36 35.5 °F 34.7 °F 30.00 in NNW 2.2 mph 3.5 mph 97 % 0.01 in
10:41 35.4 °F 34.6 °F 30.00 in NNE 2.3 mph 4.0 mph 97 % 0.01 in
10:49 35.2 °F 34.4 °F 30.00 in North 3.4 mph 5.8 mph 97 % 0.01 in
10:56 35.1 °F 34.3 °F 30.00 in NNW 0.9 mph 3.5 mph 97 % 0.01 in
11:06 34.9 °F 34.1 °F 29.99 in NW 1.0 mph 5.0 mph 97 % 0.00 in
11:13 34.8 °F 34.0 °F 29.99 in NW 1.7 mph 3.5 mph 97 % 0.01 in
11:29 34.8 °F 34.0 °F 29.98 in NW 3.2 mph 4.6 mph 97 % 0.00 in
11:49 34.8 °F 34.0 °F 29.97 in WNW 2.8 mph 4.6 mph 97 % 0.00 in
11:56 34.8 °F 34.0 °F 29.97 in WNW 0.2 mph 3.5 mph 97 % 0.00 in
12:08 34.9 °F 34.1 °F 29.95 in WNW 1.1 mph 3.5 mph 97 % 0.01 in
12:16 35.0 °F 34.2 °F 29.95 in WNW 1.8 mph 3.5 mph 97 % 0.01 in
12:49 34.8 °F 34.0 °F 29.94 in West 4.2 mph 5.8 mph 97 % 0.01 in
13:14 34.4 °F 33.6 °F 29.94 in WNW 2.1 mph 3.5 mph 97 % 0.00 in
13:19 34.3 °F 33.5 °F 29.93 in WNW 3.8 mph 6.9 mph 97 % 0.00 in
13:26 34.2 °F 33.4 °F 29.93 in West 3.2 mph 9.2 mph 97 % 0.00 in
13:43 33.9 °F 33.1 °F 29.92 in West 1.2 mph 3.5 mph 97 % 0.00 in
13:50 33.8 °F 33.0 °F 29.92 in West 1.5 mph 8.1 mph 97 % 0.00 in
14:04 33.6 °F 32.8 °F 29.91 in WNW 3.6 mph 8.1 mph 97 % 0.00 in
14:16 33.6 °F 32.8 °F 29.91 in WNW 0.6 mph 3.5 mph 97 % 0.01 in
14:21 33.6 °F 32.8 °F 29.92 in WNW 4.1 mph 6.9 mph 97 % 0.01 in
14:40 33.6 °F 32.8 °F 29.92 in West 1.0 mph 4.0 mph 97 % 0.01 in
14:45 33.6 °F 32.8 °F 29.91 in WNW 2.4 mph 3.5 mph 97 % 0.01 in
14:50 33.6 °F 32.8 °F 29.91 in WNW 0.7 mph 1.2 mph 97 % 0.01 in
14:55 33.7 °F 32.9 °F 29.91 in WNW 2.9 mph 4.6 mph 97 % 0.01 in
15:00 33.7 °F 32.9 °F 29.91 in WNW 2.3 mph 3.5 mph 97 % 0.01 in
15:06 33.6 °F 32.9 °F 29.91 in WNW 3.0 mph 6.0 mph 97 % 0.00 in
15:11 33.7 °F 32.9 °F 29.91 in WNW 2.2 mph 3.5 mph 97 % 0.00 in
15:16 33.7 °F 32.9 °F 29.91 in WNW 1.0 mph 4.0 mph 97 % 0.00 in
15:20 33.7 °F 32.9 °F 29.91 in NW 1.8 mph 4.0 mph 97 % 0.00 in
15:25 33.7 °F 32.9 °F 29.91 in NW 1.2 mph 5.0 mph 97 % 0.00 in
15:31 33.7 °F 32.9 °F 29.91 in WNW 4.4 mph 5.0 mph 97 % 0.00 in
15:36 33.7 °F 32.9 °F 29.91 in NW 3.2 mph 6.0 mph 97 % 0.00 in
15:38 33.7 °F 32.9 °F 29.92 in WNW 4.7 mph 9.2 mph 97 % 0.00 in
15:41 33.7 °F 32.9 °F 29.92 in NW 2.0 mph 5.8 mph 97 % 0.00 in
15:46 33.6 °F 32.8 °F 29.92 in WNW 2.7 mph 5.8 mph 97 % 0.00 in
15:48 33.6 °F 32.8 °F 29.91 in WNW 3.3 mph 6.0 mph 97 % 0.00 in
15:53 33.6 °F 32.8 °F 29.92 in WNW 3.4 mph 5.8 mph 97 % 0.00 in
15:58 33.5 °F 32.7 °F 29.92 in WNW 2.6 mph 4.0 mph 97 % 0.00 in
16:03 33.5 °F 32.7 °F 29.92 in WNW 2.0 mph 5.8 mph 97 % 0.00 in
16:05 33.5 °F 32.7 °F 29.92 in WNW 2.1 mph 5.8 mph 97 % 0.00 in
16:10 33.5 °F 32.7 °F 29.92 in West 1.7 mph 3.5 mph 97 % 0.00 in
16:11 33.5 °F 32.7 °F 29.92 in WNW 1.0 mph 5.0 mph 97 % 0.00 in
16:15 33.5 °F 32.7 °F 29.91 in West 1.2 mph 3.5 mph 97 % 0.00 in
16:19 33.4 °F 32.6 °F 29.91 in WNW 2.0 mph 3.5 mph 97 % 0.00 in
16:20 33.4 °F 32.6 °F 29.91 in WNW 2.7 mph 4.6 mph 97 % 0.00 in
16:21 33.4 °F 32.6 °F 29.91 in WNW 1.6 mph 4.6 mph 97 % 0.00 in
16:23 33.4 °F 32.6 °F 29.91 in West 2.1 mph 4.6 mph 97 % 0.00 in
16:26 33.4 °F 32.6 °F 29.91 in WNW 2.7 mph 5.8 mph 97 % 0.00 in
16:28 33.4 °F 32.6 °F 29.91 in WNW 3.9 mph 8.1 mph 97 % 0.00 in
16:29 33.4 °F 32.6 °F 29.91 in WNW 3.1 mph 6.9 mph 97 % 0.00 in
16:30 33.4 °F 32.6 °F 29.91 in West 3.8 mph 5.8 mph 97 % 0.00 in
16:33 33.3 °F 32.5 °F 29.91 in WNW 2.7 mph 6.9 mph 97 % 0.00 in
16:35 33.3 °F 32.5 °F 29.91 in NNW 5.6 mph 10.4 mph 97 % 0.00 in
16:40 33.2 °F 32.4 °F 29.91 in NNW 4.7 mph 11.0 mph 97 % 0.00 in
16:41 33.2 °F 32.4 °F 29.91 in WNW 5.0 mph 7.0 mph 97 % 0.00 in
16:46 33.2 °F 32.4 °F 29.90 in NW 3.6 mph 5.8 mph 97 % 0.00 in
16:51 33.2 °F 32.2 °F 29.90 in WNW 6.0 mph 12.0 mph 96 % 0.00 in
16:55 33.2 °F 32.2 °F 29.90 in NW 4.9 mph 8.1 mph 96 % 0.00 in
17:00 33.1 °F 32.1 °F 29.90 in WNW 4.0 mph 6.0 mph 96 % 0.00 in
17:05 33.2 °F 32.2 °F 29.90 in NW 4.4 mph 8.1 mph 96 % 0.00 in
17:10 33.2 °F 32.2 °F 29.90 in West 6.2 mph 8.1 mph 96 % 0.00 in
17:15 33.1 °F 32.1 °F 29.90 in WNW 4.0 mph 8.0 mph 96 % 0.00 in
17:20 32.9 °F 31.9 °F 29.90 in WNW 3.9 mph 8.1 mph 96 % 0.00 in
17:25 32.7 °F 31.4 °F 29.90 in WNW 3.8 mph 8.1 mph 95 % 0.00 in
17:30 32.5 °F 31.2 °F 29.91 in West 3.3 mph 11.5 mph 95 % 0.00 in
17:31 32.4 °F 31.1 °F 29.90 in West 3.9 mph 6.9 mph 95 % 0.00 in
17:36 32.2 °F 30.9 °F 29.90 in WNW 5.4 mph 10.4 mph 95 % 0.00 in
17:41 32.0 °F 30.5 °F 29.90 in West 3.5 mph 6.9 mph 94 % 0.00 in
17:46 31.9 °F 30.4 °F 29.90 in WNW 5.6 mph 8.0 mph 94 % 0.00 in
17:51 31.7 °F 30.2 °F 29.91 in WSW 4.9 mph 9.2 mph 94 % 0.00 in
17:56 31.6 °F 30.1 °F 29.91 in NW 4.4 mph 12.7 mph 94 % 0.00 in
18:01 31.5 °F 30.0 °F 29.91 in WSW 8.0 mph 12.7 mph 94 % 0.00 in
18:06 31.4 °F 29.9 °F 29.91 in WNW 7.3 mph 9.2 mph 94 % 0.00 in
18:11 31.2 °F 29.4 °F 29.91 in WSW 3.4 mph 8.1 mph 93 % 0.00 in
18:17 31.2 °F 29.4 °F 29.91 in West 5.2 mph 11.5 mph 93 % 0.00 in
18:22 31.2 °F 29.4 °F 29.92 in NW 5.5 mph 11.5 mph 93 % 0.00 in
18:27 31.1 °F 29.3 °F 29.92 in West 5.5 mph 9.2 mph 93 % 0.00 in
18:32 31.1 °F 29.3 °F 29.92 in WNW 2.2 mph 8.1 mph 93 % 0.00 in
18:37 31.0 °F 29.2 °F 29.92 in WNW 5.4 mph 9.2 mph 93 % 0.00 in
18:42 31.0 °F 29.2 °F 29.91 in West 6.5 mph 11.5 mph 93 % 0.00 in
18:47 31.0 °F 29.2 °F 29.91 in NW 5.0 mph 9.2 mph 93 % 0.00 in
18:52 30.9 °F 28.9 °F 29.91 in NNW 4.8 mph 7.0 mph 92 % 0.00 in
18:57 30.9 °F 28.9 °F 29.91 in WNW 4.4 mph 8.1 mph 92 % 0.00 in
19:02 30.8 °F 28.8 °F 29.91 in West 4.5 mph 6.9 mph 92 % 0.00 in
19:07 30.8 °F 28.8 °F 29.90 in NW 6.8 mph 10.4 mph 92 % 0.00 in
19:12 30.7 °F 28.4 °F 29.91 in WNW 4.5 mph 11.5 mph 91 % 0.00 in
19:17 30.6 °F 28.3 °F 29.90 in NW 4.7 mph 5.8 mph 91 % 0.00 in
19:22 30.6 °F 28.3 °F 29.90 in WNW 4.9 mph 8.1 mph 91 % 0.00 in
19:27 30.5 °F 28.2 °F 29.90 in NNW 3.9 mph 11.5 mph 91 % 0.00 in
19:32 30.4 °F 28.1 °F 29.90 in NW 6.2 mph 9.2 mph 91 % 0.00 in
19:37 30.4 °F 27.8 °F 29.90 in WNW 4.0 mph 10.4 mph 90 % 0.00 in
19:42 30.3 °F 27.7 °F 29.91 in NW 3.6 mph 6.9 mph 90 % 0.00 in
19:45 30.3 °F 27.7 °F 29.91 in NW 4.1 mph 9.2 mph 90 % 0.00 in
19:50 30.2 °F 27.6 °F 29.91 in WNW 2.2 mph 5.0 mph 90 % 0.00 in
19:55 30.2 °F 27.6 °F 29.91 in NW 4.6 mph 6.0 mph 90 % 0.00 in
20:00 30.1 °F 27.5 °F 29.90 in North 4.8 mph 6.9 mph 90 % 0.00 in
20:05 30.1 °F 27.5 °F 29.90 in WNW 1.2 mph 4.6 mph 90 % 0.00 in
20:10 30.1 °F 27.5 °F 29.91 in NNW 2.9 mph 8.1 mph 90 % 0.00 in
20:15 30.1 °F 27.5 °F 29.91 in NNW 1.7 mph 8.1 mph 90 % 0.00 in
20:20 30.1 °F 27.8 °F 29.92 in WNW 3.8 mph 7.0 mph 91 % 0.00 in
20:25 30.1 °F 27.5 °F 29.91 in NW 4.9 mph 8.1 mph 90 % 0.00 in
20:30 30.0 °F 27.4 °F 29.91 in NNW 2.2 mph 9.2 mph 90 % 0.00 in
20:35 30.0 °F 27.4 °F 29.91 in NE 5.9 mph 5.9 mph 90 % 0.00 in
20:40 29.9 °F 27.1 °F 29.91 in NNW 5.5 mph 7.0 mph 89 % 0.00 in
20:45 29.8 °F 27.0 °F 29.92 in NNW 6.0 mph 9.0 mph 89 % 0.00 in
20:50 29.7 °F 26.6 °F 29.91 in NNW 5.0 mph 8.0 mph 88 % 0.00 in
20:55 29.7 °F 26.6 °F 29.91 in NNW 2.0 mph 7.0 mph 88 % 0.00 in
21:01 29.7 °F 26.6 °F 29.91 in NW 3.9 mph 5.8 mph 88 % 0.00 in
21:06 29.6 °F 26.5 °F 29.92 in NW 4.7 mph 10.0 mph 88 % 0.00 in
21:11 29.5 °F 26.4 °F 29.91 in NW 3.9 mph 8.1 mph 88 % 0.00 in
21:16 29.5 °F 26.1 °F 29.91 in NW 2.2 mph 8.1 mph 87 % 0.00 in
21:21 29.4 °F 26.0 °F 29.91 in NW 1.5 mph 3.5 mph 87 % 0.00 in
21:26 29.4 °F 26.3 °F 29.91 in NNW 4.0 mph 6.9 mph 88 % 0.00 in
21:31 29.3 °F 26.2 °F 29.92 in NNW 3.3 mph 5.0 mph 88 % 0.00 in
21:36 29.3 °F 25.9 °F 29.91 in NNW 3.2 mph 5.8 mph 87 % 0.00 in
21:41 29.2 °F 25.8 °F 29.91 in NNW 4.1 mph 6.9 mph 87 % 0.00 in
21:46 29.1 °F 25.7 °F 29.91 in WNW 4.5 mph 6.9 mph 87 % 0.00 in
21:51 28.9 °F 25.2 °F 29.92 in NNW 4.4 mph 6.0 mph 86 % 0.00 in
21:56 28.8 °F 25.1 °F 29.92 in NW 3.9 mph 7.0 mph 86 % 0.00 in
22:01 28.8 °F 25.1 °F 29.92 in WNW 4.4 mph 8.0 mph 86 % 0.00 in
22:06 28.7 °F 24.8 °F 29.91 in NW 3.1 mph 6.9 mph 85 % 0.00 in
22:11 28.7 °F 24.8 °F 29.92 in NW 1.8 mph 4.6 mph 85 % 0.00 in
22:16 28.5 °F 24.6 °F 29.92 in NNW 3.2 mph 9.2 mph 85 % 0.00 in
22:21 28.4 °F 24.2 °F 29.91 in NNW 2.7 mph 11.5 mph 84 % 0.00 in
22:27 28.3 °F 24.1 °F 29.90 in NNW 4.7 mph 6.9 mph 84 % 0.00 in
22:28 28.3 °F 24.1 °F 29.91 in NW 4.6 mph 6.9 mph 84 % 0.00 in
22:33 28.1 °F 23.9 °F 29.92 in NNW 2.3 mph 5.8 mph 84 % 0.00 in
22:38 28.0 °F 23.5 °F 29.92 in NNW 5.5 mph 10.4 mph 83 % 0.00 in
22:43 27.9 °F 23.4 °F 29.91 in NNE 4.3 mph 6.9 mph 83 % 0.00 in
22:48 27.7 °F 23.2 °F 29.91 in NNE 9.2 mph 12.7 mph 83 % 0.00 in
22:53 27.5 °F 22.7 °F 29.91 in NNE 6.7 mph 9.2 mph 82 % 0.00 in
22:58 27.3 °F 22.5 °F 29.91 in North 7.5 mph 9.2 mph 82 % 0.00 in
23:03 27.1 °F 22.3 °F 29.92 in NNE 6.3 mph 13.0 mph 82 % 0.00 in
23:08 26.8 °F 22.0 °F 29.91 in North 7.0 mph 12.0 mph 82 % 0.00 in
23:14 26.6 °F 21.6 °F 29.91 in NNE 7.4 mph 13.8 mph 81 % 0.00 in
23:19 26.4 °F 21.4 °F 29.91 in North 6.8 mph 9.2 mph 81 % 0.00 in
23:24 26.3 °F 21.6 °F 29.91 in NNW 3.6 mph 6.9 mph 82 % 0.00 in
23:29 26.2 °F 21.7 °F 29.91 in North 3.6 mph 6.9 mph 83 % 0.00 in
23:34 26.1 °F 21.6 °F 29.90 in North 2.5 mph 8.1 mph 83 % 0.00 in
23:39 26.1 °F 21.6 °F 29.91 in North 5.6 mph 9.2 mph 83 % 0.00 in
23:44 25.9 °F 21.2 °F 29.90 in NNE 8.9 mph 11.5 mph 82 % 0.00 in
23:49 25.6 °F 20.6 °F 29.90 in NNE 5.3 mph 6.9 mph 81 % 0.00 in
23:54 25.6 °F 20.3 °F 29.89 in NNE 4.7 mph 8.1 mph 80 % 0.00 in
23:59 25.3 °F 20.3 °F 29.89 in North 3.5 mph 6.9 mph 81 % 0.00 in
Crab Meadow Weather
Compliments of Weather Underground - 2.5 mb

Script developed by  Jim McMurry - jmcmurry@mwt.net Adapted for the template by  Wim van der Kuil - Leuven-Template.eu

Astronomy: One day on Jupiter is only 9 hours and 55 minutes.